createdAt,value
2023-04-23T00:00:40.863Z,4345.00
2023-04-23T00:01:40.854Z,4303.00
2023-04-23T00:02:40.961Z,4320.00
2023-04-23T00:03:41.034Z,4327.00
2023-04-23T00:04:41.533Z,4355.00
2023-04-23T00:05:40.914Z,4387.00
2023-04-23T00:06:40.937Z,4400.00
2023-04-23T00:07:41.008Z,4380.00
2023-04-23T00:08:41.004Z,4381.00
2023-04-23T00:09:41.033Z,4417.00
2023-04-23T00:10:41.103Z,4422.00
2023-04-23T00:11:42.135Z,4390.00
2023-04-23T00:12:41.210Z,4349.00
2023-04-23T00:13:41.272Z,4334.00
2023-04-23T00:14:41.546Z,4291.00
2023-04-23T00:15:41.338Z,4287.00
2023-04-23T00:16:41.453Z,4274.00
2023-04-23T00:17:41.484Z,4294.00
2023-04-23T00:18:41.480Z,4322.00
2023-04-23T00:19:41.545Z,4327.00
2023-04-23T00:20:41.539Z,4370.00
2023-04-23T00:21:41.575Z,4401.00
2023-04-23T00:22:41.636Z,4440.00
2023-04-23T00:23:41.682Z,4483.00
2023-04-23T00:24:41.953Z,4524.00
2023-04-23T00:25:41.752Z,4520.00
2023-04-23T00:26:41.773Z,4549.00
2023-04-23T00:27:41.776Z,4571.00
2023-04-23T00:28:41.826Z,4577.00
2023-04-23T00:29:41.865Z,4584.00
2023-04-23T00:30:41.888Z,4576.00
2023-04-23T00:31:41.951Z,4552.00
2023-04-23T00:32:42.033Z,4524.00
2023-04-23T00:33:41.993Z,4517.00
2023-04-23T00:34:42.314Z,4504.00
2023-04-23T00:35:42.083Z,4519.00
2023-04-23T00:36:42.154Z,4549.00
2023-04-23T00:37:42.179Z,4552.00
2023-04-23T00:38:42.214Z,4573.00
2023-04-23T00:39:42.217Z,4582.00
2023-04-23T00:40:42.264Z,4572.00
2023-04-23T00:41:42.302Z,4555.00
2023-04-23T00:42:42.281Z,4557.00
2023-04-23T00:43:42.323Z,4596.00
2023-04-23T00:44:42.634Z,4591.00
2023-04-23T00:45:42.407Z,4598.00
2023-04-23T00:46:42.428Z,4609.00
2023-04-23T00:47:42.517Z,4577.00
2023-04-23T00:48:42.487Z,4551.00
2023-04-23T00:49:42.537Z,4547.00
2023-04-23T00:50:42.579Z,4542.00
2023-04-23T00:51:42.608Z,4533.00
2023-04-23T00:52:42.663Z,4514.00
2023-04-23T00:53:42.742Z,4510.00
2023-04-23T00:54:43.026Z,4513.00
2023-04-23T00:55:42.772Z,4530.00
2023-04-23T00:56:42.826Z,4540.00
2023-04-23T00:57:42.829Z,4577.00
2023-04-23T00:58:42.832Z,4585.00
2023-04-23T00:59:42.870Z,4594.00
2023-04-23T01:00:42.920Z,4565.00
2023-04-23T01:01:43.001Z,4572.00
2023-04-23T01:02:42.990Z,4612.00
2023-04-23T01:03:43.057Z,4572.00
2023-04-23T01:04:43.110Z,4541.00
2023-04-23T01:05:43.049Z,4566.00
2023-04-23T01:06:43.043Z,4556.00
2023-04-23T01:07:43.072Z,4544.00
2023-04-23T01:08:43.059Z,4552.00
2023-04-23T01:09:43.080Z,4578.00
2023-04-23T01:10:43.115Z,4585.00
2023-04-23T01:11:43.152Z,4576.00
2023-04-23T01:12:43.128Z,4579.00
2023-04-23T01:13:43.174Z,4593.00
2023-04-23T01:14:43.303Z,4592.00
2023-04-23T01:15:43.259Z,4588.00
2023-04-23T01:16:43.322Z,4586.00
2023-04-23T01:17:43.319Z,4553.00
2023-04-23T01:18:43.242Z,4564.00
2023-04-23T01:19:43.314Z,4566.00
2023-04-23T01:20:43.312Z,4567.00
2023-04-23T01:21:43.378Z,4548.00
2023-04-23T01:22:43.400Z,4513.00
2023-04-23T01:23:43.437Z,4531.00
2023-04-23T01:24:43.662Z,4553.00
2023-04-23T01:25:43.451Z,4564.00
2023-04-23T01:26:43.528Z,4570.00
2023-04-23T01:27:43.562Z,4577.00
2023-04-23T01:28:43.586Z,4574.00
2023-04-23T01:29:43.589Z,4577.00
2023-04-23T01:30:43.741Z,4585.00
2023-04-23T01:31:43.643Z,4599.00
2023-04-23T01:32:43.689Z,4558.00
2023-04-23T01:33:43.657Z,4584.00
2023-04-23T01:34:43.895Z,4564.00
2023-04-23T01:35:43.745Z,4536.00
2023-04-23T01:36:43.754Z,4495.00
2023-04-23T01:37:43.775Z,4505.00
2023-04-23T01:38:43.819Z,4501.00
2023-04-23T01:39:43.835Z,4510.00
2023-04-23T01:40:43.829Z,4506.00
2023-04-23T01:41:43.856Z,4467.00
2023-04-23T01:42:43.864Z,4494.00
2023-04-23T01:43:43.860Z,4487.00
2023-04-23T01:44:43.878Z,4458.00
2023-04-23T01:45:43.888Z,4431.00
2023-04-23T01:46:43.881Z,4387.00
2023-04-23T01:47:43.906Z,4362.00
2023-04-23T01:48:43.930Z,4392.00
2023-04-23T01:49:43.940Z,4379.00
2023-04-23T01:50:43.921Z,4426.00
2023-04-23T01:51:43.950Z,4429.00
2023-04-23T01:52:43.948Z,4416.00
2023-04-23T01:53:43.989Z,4428.00
2023-04-23T01:54:44.162Z,4422.00
2023-04-23T01:55:43.987Z,4444.00
2023-04-23T01:56:44.036Z,4421.00
2023-04-23T01:57:44.051Z,4422.00
2023-04-23T01:58:44.052Z,4482.00
2023-04-23T01:59:44.084Z,4456.00
2023-04-23T02:00:44.091Z,4460.00
2023-04-23T02:01:44.221Z,4456.00
2023-04-23T02:02:44.385Z,4480.00
2023-04-23T02:03:44.420Z,4455.00
2023-04-23T02:04:44.522Z,4438.00
2023-04-23T02:05:44.339Z,4417.00
2023-04-23T02:06:44.422Z,4459.00
2023-04-23T02:07:44.419Z,4491.00
2023-04-23T02:08:44.487Z,4495.00
2023-04-23T02:09:44.509Z,4510.00
2023-04-23T02:10:44.565Z,4524.00
2023-04-23T02:11:44.613Z,4512.00
2023-04-23T02:12:44.640Z,4527.00
2023-04-23T02:13:44.670Z,4536.00
2023-04-23T02:14:44.815Z,4543.00
2023-04-23T02:15:44.781Z,4524.00
2023-04-23T02:16:44.771Z,4503.00
2023-04-23T02:17:44.833Z,4448.00
2023-04-23T02:18:44.851Z,4408.00
2023-04-23T02:19:44.844Z,4388.00
2023-04-23T02:20:44.859Z,4393.00
2023-04-23T02:21:44.905Z,4398.00
2023-04-23T02:22:44.917Z,4377.00
2023-04-23T02:23:44.976Z,4331.00
2023-04-23T02:24:44.999Z,4287.00
2023-04-23T02:25:45.050Z,4249.00
2023-04-23T02:26:45.050Z,4260.00
2023-04-23T02:27:45.105Z,4254.00
2023-04-23T02:28:45.127Z,4213.00
2023-04-23T02:29:45.143Z,4213.00
2023-04-23T02:30:45.164Z,4219.00
2023-04-23T02:31:45.253Z,4249.00
2023-04-23T02:32:45.239Z,4239.00
2023-04-23T02:33:45.229Z,4191.00
2023-04-23T02:34:45.228Z,4148.00
2023-04-23T02:35:45.284Z,4157.00
2023-04-23T02:36:45.304Z,4169.00
2023-04-23T02:37:45.302Z,4159.00
2023-04-23T02:38:45.361Z,4152.00
2023-04-23T02:39:45.410Z,4200.00
2023-04-23T02:40:45.385Z,4234.00
2023-04-23T02:41:45.415Z,4238.00
2023-04-23T02:42:45.508Z,4226.00
2023-04-23T02:43:45.475Z,4224.00
2023-04-23T02:44:45.482Z,4256.00
2023-04-23T02:45:45.570Z,4272.00
2023-04-23T02:46:45.621Z,4264.00
2023-04-23T02:47:45.647Z,4292.00
2023-04-23T02:48:45.699Z,4313.00
2023-04-23T02:49:45.769Z,4321.00
2023-04-23T02:50:45.789Z,4319.00
2023-04-23T02:51:45.862Z,4259.00
2023-04-23T02:52:45.860Z,4176.00
2023-04-23T02:53:45.909Z,4125.00
2023-04-23T02:54:45.997Z,4102.00
2023-04-23T02:55:46.029Z,4110.00
2023-04-23T02:56:46.071Z,4126.00
2023-04-23T02:57:46.114Z,4162.00
2023-04-23T02:58:46.129Z,4204.00
2023-04-23T02:59:46.164Z,4248.00
2023-04-23T03:00:46.260Z,4276.00
2023-04-23T03:01:46.258Z,4276.00
2023-04-23T03:02:46.438Z,4276.00
2023-04-23T03:03:46.517Z,4234.00
2023-04-23T03:04:46.431Z,4200.00
2023-04-23T03:05:46.468Z,4168.00
2023-04-23T03:06:46.521Z,4185.00
2023-04-23T03:07:46.551Z,4183.00
2023-04-23T03:08:46.558Z,4195.00
2023-04-23T03:09:46.578Z,4205.00
2023-04-23T03:10:46.594Z,4234.00
2023-04-23T03:11:46.647Z,4240.00
2023-04-23T03:12:46.691Z,4255.00
2023-04-23T03:13:46.713Z,4288.00
2023-04-23T03:14:46.728Z,4281.00
2023-04-23T03:15:46.776Z,4292.00
2023-04-23T03:16:46.878Z,4323.00
2023-04-23T03:17:46.943Z,4338.00
2023-04-23T03:18:46.906Z,4337.00
2023-04-23T03:19:46.977Z,4340.00
2023-04-23T03:20:46.991Z,4349.00
2023-04-23T03:21:47.050Z,4331.00
2023-04-23T03:22:47.105Z,4360.00
2023-04-23T03:23:47.147Z,4383.00
2023-04-23T03:24:47.221Z,4407.00
2023-04-23T03:25:47.275Z,4423.00
2023-04-23T03:26:47.321Z,4412.00
2023-04-23T03:27:47.363Z,4414.00
2023-04-23T03:28:47.383Z,4410.00
2023-04-23T03:29:47.410Z,4360.00
2023-04-23T03:30:47.478Z,4360.00
2023-04-23T03:31:47.454Z,4352.00
2023-04-23T03:32:47.532Z,4356.00
2023-04-23T03:33:47.527Z,4339.00
2023-04-23T03:34:47.519Z,4341.00
2023-04-23T03:35:47.584Z,4319.00
2023-04-23T03:36:47.593Z,4279.00
2023-04-23T03:37:47.636Z,4291.00
2023-04-23T03:38:47.641Z,4294.00
2023-04-23T03:39:47.670Z,4274.00
2023-04-23T03:40:47.691Z,4279.00
2023-04-23T03:41:47.726Z,4270.00
2023-04-23T03:42:47.736Z,4275.00
2023-04-23T03:43:47.780Z,4279.00
2023-04-23T03:44:47.752Z,4266.00
2023-04-23T03:45:47.827Z,4267.00
2023-04-23T03:46:47.829Z,4265.00
2023-04-23T03:47:47.864Z,4287.00
2023-04-23T03:48:47.896Z,4290.00
2023-04-23T03:49:47.965Z,4290.00
2023-04-23T03:50:48.028Z,4302.00
2023-04-23T03:51:48.078Z,4332.00
2023-04-23T03:52:48.110Z,4279.00
2023-04-23T03:53:48.184Z,4249.00
2023-04-23T03:54:48.227Z,4251.00
2023-04-23T03:55:48.273Z,4241.00
2023-04-23T03:56:48.309Z,4245.00
2023-04-23T03:57:48.324Z,4257.00
2023-04-23T03:58:48.369Z,4269.00
2023-04-23T03:59:48.376Z,4267.00
2023-04-23T04:00:48.404Z,4272.00
2023-04-23T04:01:48.422Z,4291.00
2023-04-23T04:02:48.619Z,4319.00
2023-04-23T04:03:48.609Z,4328.00
2023-04-23T04:04:48.811Z,4341.00
2023-04-23T04:05:48.657Z,4333.00
2023-04-23T04:06:48.565Z,4320.00
2023-04-23T04:07:48.589Z,4295.00
2023-04-23T04:08:48.685Z,4310.00
2023-04-23T04:09:48.750Z,4319.00
2023-04-23T04:10:48.762Z,4308.00
2023-04-23T04:11:48.798Z,4323.00
2023-04-23T04:12:48.840Z,4250.00
2023-04-23T04:13:48.921Z,4190.00
2023-04-23T04:14:48.965Z,4141.00
2023-04-23T04:15:49.047Z,4100.00
2023-04-23T04:16:49.055Z,4070.00
2023-04-23T04:17:49.096Z,4068.00
2023-04-23T04:18:49.098Z,4021.00
2023-04-23T04:19:49.111Z,3954.00
2023-04-23T04:20:49.148Z,3928.00
2023-04-23T04:21:49.155Z,3889.00
2023-04-23T04:22:49.183Z,3883.00
2023-04-23T04:23:49.198Z,3834.00
2023-04-23T04:24:49.246Z,3813.00
2023-04-23T04:25:49.268Z,3824.00
2023-04-23T04:26:49.291Z,3787.00
2023-04-23T04:27:49.361Z,3719.00
2023-04-23T04:28:49.384Z,3703.00
2023-04-23T04:29:49.417Z,3760.00
2023-04-23T04:30:49.429Z,3758.00
2023-04-23T04:31:49.543Z,3814.00
2023-04-23T04:32:49.520Z,3830.00
2023-04-23T04:33:49.547Z,3861.00
2023-04-23T04:34:49.572Z,3877.00
2023-04-23T04:35:49.605Z,3926.00
2023-04-23T04:36:49.597Z,3938.00
2023-04-23T04:37:49.602Z,3992.00
2023-04-23T04:38:49.674Z,3984.00
2023-04-23T04:39:49.658Z,3981.00
2023-04-23T04:40:49.691Z,3986.00
2023-04-23T04:41:49.669Z,4009.00
2023-04-23T04:42:49.699Z,4022.00
2023-04-23T04:43:49.715Z,4032.00
2023-04-23T04:44:49.699Z,4037.00
2023-04-23T04:45:49.725Z,4031.00
2023-04-23T04:46:49.843Z,4009.00
2023-04-23T04:47:49.802Z,4004.00
2023-04-23T04:48:49.820Z,4018.00
2023-04-23T04:49:49.783Z,4029.00
2023-04-23T04:50:49.797Z,4016.00
2023-04-23T04:51:49.832Z,4006.00
2023-04-23T04:52:49.818Z,4005.00
2023-04-23T04:53:49.850Z,4023.00
2023-04-23T04:54:49.858Z,4038.00
2023-04-23T04:55:49.921Z,4043.00
2023-04-23T04:56:49.898Z,4048.00
2023-04-23T04:57:49.912Z,4031.00
2023-04-23T04:58:49.955Z,4041.00
2023-04-23T04:59:49.993Z,4022.00
2023-04-23T05:00:50.070Z,4017.00
2023-04-23T05:01:50.022Z,4037.00
2023-04-23T05:02:50.220Z,4050.00
2023-04-23T05:03:50.285Z,4035.00
2023-04-23T05:04:50.092Z,4040.00
2023-04-23T05:05:50.152Z,4043.00
2023-04-23T05:06:50.169Z,4057.00
2023-04-23T05:07:50.189Z,4029.00
2023-04-23T05:08:50.247Z,4036.00
2023-04-23T05:09:50.231Z,4044.00
2023-04-23T05:10:50.263Z,4025.00
2023-04-23T05:11:50.243Z,4040.00
2023-04-23T05:12:50.260Z,4035.00
2023-04-23T05:13:50.288Z,4043.00
2023-04-23T05:14:51.746Z,4048.00
2023-04-23T05:15:50.340Z,4061.00
2023-04-23T05:16:50.402Z,4054.00
2023-04-23T05:17:50.448Z,4042.00
2023-04-23T05:18:50.398Z,4046.00
2023-04-23T05:19:50.450Z,4057.00
2023-04-23T05:20:50.476Z,4037.00
2023-04-23T05:21:50.478Z,4049.00
2023-04-23T05:22:50.461Z,4035.00
2023-04-23T05:23:50.536Z,4038.00
2023-04-23T05:24:50.526Z,4023.00
2023-04-23T05:25:51.431Z,4045.00
2023-04-23T05:26:50.559Z,3999.00
2023-04-23T05:27:50.564Z,4012.00
2023-04-23T05:28:50.609Z,4026.00
2023-04-23T05:29:50.624Z,4022.00
2023-04-23T05:30:50.617Z,4046.00
2023-04-23T05:31:50.715Z,4031.00
2023-04-23T05:32:50.687Z,4040.00
2023-04-23T05:33:51.018Z,4041.00
2023-04-23T05:34:50.663Z,4045.00
2023-04-23T05:35:50.649Z,4038.00
2023-04-23T05:36:50.696Z,4025.00
2023-04-23T05:37:50.713Z,4019.00
2023-04-23T05:38:50.731Z,4023.00
2023-04-23T05:39:50.743Z,4031.00
2023-04-23T05:40:51.274Z,4016.00
2023-04-23T05:41:50.836Z,4037.00
2023-04-23T05:42:50.888Z,4016.00
2023-04-23T05:43:50.909Z,3985.00
2023-04-23T05:44:50.950Z,3964.00
2023-04-23T05:45:50.994Z,3976.00
2023-04-23T05:46:51.014Z,3946.00
2023-04-23T05:47:51.025Z,3965.00
2023-04-23T05:48:51.057Z,3981.00
2023-04-23T05:49:51.130Z,3986.00
2023-04-23T05:50:51.155Z,3981.00
2023-04-23T05:51:51.255Z,3982.00
2023-04-23T05:52:51.240Z,4003.00
2023-04-23T05:53:51.256Z,4020.00
2023-04-23T05:54:51.321Z,4026.00
2023-04-23T05:55:51.375Z,4026.00
2023-04-23T05:56:53.485Z,4028.00
2023-04-23T05:57:51.409Z,4030.00
2023-04-23T05:58:51.403Z,4021.00
2023-04-23T05:59:51.407Z,4013.00
2023-04-23T06:00:51.400Z,3999.00
2023-04-23T06:01:51.426Z,3983.00
2023-04-23T06:02:51.500Z,3981.00
2023-04-23T06:03:51.666Z,3982.00
2023-04-23T06:04:51.541Z,3983.00
2023-04-23T06:05:51.528Z,3997.00
2023-04-23T06:06:51.417Z,3979.00
2023-04-23T06:07:51.422Z,3963.00
2023-04-23T06:08:51.409Z,3931.00
2023-04-23T06:09:51.394Z,3827.00
2023-04-23T06:10:51.434Z,3868.00
2023-04-23T06:11:51.415Z,3898.00
2023-04-23T06:12:51.406Z,3884.00
2023-04-23T06:13:51.419Z,3873.00
2023-04-23T06:14:51.407Z,3820.00
2023-04-23T06:15:51.421Z,3808.00
2023-04-23T06:16:51.415Z,3789.00
2023-04-23T06:17:51.483Z,3772.00
2023-04-23T06:18:51.402Z,3754.00
2023-04-23T06:19:51.420Z,3741.00
2023-04-23T06:20:51.443Z,3650.00
2023-04-23T06:21:51.420Z,3582.00
2023-04-23T06:22:51.420Z,3607.00
2023-04-23T06:23:51.425Z,3572.00
2023-04-23T06:24:51.434Z,3537.00
2023-04-23T06:25:51.414Z,3508.00
2023-04-23T06:26:51.414Z,3517.00
2023-04-23T06:27:51.453Z,3541.00
2023-04-23T06:28:51.467Z,3550.00
2023-04-23T06:29:51.424Z,3553.00
2023-04-23T06:30:51.496Z,3541.00
2023-04-23T06:31:51.510Z,3535.00
2023-04-23T06:32:51.530Z,3577.00
2023-04-23T06:33:51.475Z,3633.00
2023-04-23T06:35:00.968Z,3647.00
2023-04-23T06:35:52.478Z,3650.00
2023-04-23T06:36:51.497Z,3661.00
2023-04-23T06:37:51.519Z,3667.00
2023-04-23T06:38:51.517Z,3664.00
2023-04-23T06:39:51.497Z,3650.00
2023-04-23T06:40:51.492Z,3622.00
2023-04-23T06:41:51.505Z,3613.00
2023-04-23T06:42:51.522Z,3626.00
2023-04-23T06:43:51.548Z,3639.00
2023-04-23T06:44:51.527Z,3605.00
2023-04-23T06:45:51.529Z,3593.00
2023-04-23T06:46:51.574Z,3648.00
2023-04-23T06:47:51.578Z,3593.00
2023-04-23T06:48:51.552Z,3576.00
2023-04-23T06:49:51.537Z,3564.00
2023-04-23T06:50:51.536Z,3525.00
2023-04-23T06:51:51.549Z,3509.00
2023-04-23T06:52:51.581Z,3485.00
2023-04-23T06:53:51.553Z,3440.00
2023-04-23T06:54:51.553Z,3488.00
2023-04-23T06:55:51.586Z,3535.00
2023-04-23T06:56:51.598Z,3521.00
2023-04-23T06:57:51.575Z,3519.00
2023-04-23T06:58:51.546Z,3528.00
2023-04-23T06:59:51.550Z,3578.00
2023-04-23T07:00:51.598Z,3538.00
2023-04-23T07:01:51.579Z,3540.00
2023-04-23T07:02:51.662Z,3537.00
2023-04-23T07:03:51.690Z,3524.00
2023-04-23T07:04:51.576Z,3541.00
2023-04-23T07:05:51.578Z,3556.00
2023-04-23T07:06:51.588Z,3573.00
2023-04-23T07:07:51.637Z,3611.00
2023-04-23T07:08:51.617Z,3625.00
2023-04-23T07:09:51.651Z,3659.00
2023-04-23T07:10:51.641Z,3653.00
2023-04-23T07:11:51.648Z,3666.00
2023-04-23T07:12:51.673Z,3685.00
2023-04-23T07:13:51.689Z,3684.00
2023-04-23T07:14:51.719Z,3705.00
2023-04-23T07:15:51.722Z,3728.00
2023-04-23T07:16:51.799Z,3768.00
2023-04-23T07:17:51.812Z,3773.00
2023-04-23T07:18:51.827Z,3772.00
2023-04-23T07:19:51.892Z,3774.00
2023-04-23T07:20:51.935Z,3782.00
2023-04-23T07:21:52.005Z,3795.00
2023-04-23T07:22:52.014Z,3806.00
2023-04-23T07:23:52.041Z,3808.00
2023-04-23T07:24:52.097Z,3805.00
2023-04-23T07:25:52.186Z,3803.00
2023-04-23T07:26:52.219Z,3830.00
2023-04-23T07:27:52.240Z,3816.00
2023-04-23T07:28:53.044Z,3810.00
2023-04-23T07:29:52.314Z,3821.00
2023-04-23T07:30:52.392Z,3819.00
2023-04-23T07:31:52.422Z,3790.00
2023-04-23T07:32:52.450Z,3806.00
2023-04-23T07:33:52.585Z,3790.00
2023-04-23T07:34:52.526Z,3811.00
2023-04-23T07:35:52.624Z,3782.00
2023-04-23T07:36:52.659Z,3744.00
2023-04-23T07:37:52.715Z,3750.00
2023-04-23T07:38:52.776Z,3745.00
2023-04-23T07:39:53.319Z,3755.00
2023-04-23T07:40:52.880Z,3783.00
2023-04-23T07:41:52.971Z,3784.00
2023-04-23T07:42:52.984Z,3804.00
2023-04-23T07:43:53.080Z,3774.00
2023-04-23T07:44:53.103Z,3769.00
2023-04-23T07:45:53.207Z,3774.00
2023-04-23T07:46:53.207Z,3765.00
2023-04-23T07:47:53.327Z,3729.00
2023-04-23T07:48:53.312Z,3690.00
2023-04-23T07:49:53.397Z,3681.00
2023-04-23T07:50:53.448Z,3712.00
2023-04-23T07:51:53.479Z,3719.00
2023-04-23T07:52:53.577Z,3721.00
2023-04-23T07:53:53.606Z,3733.00
2023-04-23T07:54:53.613Z,3738.00
2023-04-23T07:55:53.690Z,3755.00
2023-04-23T07:56:53.792Z,3743.00
2023-04-23T07:57:53.820Z,3716.00
2023-04-23T07:58:53.879Z,3727.00
2023-04-23T07:59:53.968Z,3747.00
2023-04-23T08:00:53.962Z,3746.00
2023-04-23T08:01:54.043Z,3752.00
2023-04-23T08:02:54.237Z,3726.00
2023-04-23T08:03:55.618Z,3667.00
2023-04-23T08:04:54.570Z,3604.00
2023-04-23T08:05:54.413Z,3582.00
2023-04-23T08:06:54.459Z,3594.00
2023-04-23T08:07:54.510Z,3609.00
2023-04-23T08:08:54.559Z,3588.00
2023-04-23T08:09:54.590Z,3600.00
2023-04-23T08:10:54.677Z,3605.00
2023-04-23T08:11:54.748Z,3610.00
2023-04-23T08:12:54.779Z,3642.00
2023-04-23T08:13:54.844Z,3658.00
2023-04-23T08:14:54.906Z,3660.00
2023-04-23T08:15:54.963Z,3633.00
2023-04-23T08:16:54.992Z,3573.00
2023-04-23T08:17:55.132Z,3517.00
2023-04-23T08:19:04.902Z,3515.00
2023-04-23T08:19:56.124Z,3515.00
2023-04-23T08:20:55.137Z,3499.00
2023-04-23T08:21:55.092Z,3467.00
2023-04-23T08:22:55.102Z,3444.00
2023-04-23T08:23:55.074Z,3433.00
2023-04-23T08:24:55.091Z,3473.00
2023-04-23T08:25:55.077Z,3464.00
2023-04-23T08:26:55.066Z,3459.00
2023-04-23T08:27:55.082Z,3452.00
2023-04-23T08:28:55.070Z,3403.00
2023-04-23T08:29:55.097Z,3374.00
2023-04-23T08:30:55.130Z,3371.00
2023-04-23T08:31:55.202Z,3375.00
2023-04-23T08:32:55.331Z,3379.00
2023-04-23T08:33:55.245Z,3326.00
2023-04-23T08:34:55.339Z,3251.00
2023-04-23T08:35:55.373Z,3222.00
2023-04-23T08:36:55.435Z,3165.00
2023-04-23T08:37:55.435Z,3185.00
2023-04-23T08:38:55.495Z,3203.00
2023-04-23T08:39:55.564Z,3198.00
2023-04-23T08:40:55.612Z,3208.00
2023-04-23T08:41:55.679Z,3181.00
2023-04-23T08:42:55.698Z,3135.00
2023-04-23T08:43:55.789Z,3119.00
2023-04-23T08:44:55.840Z,3120.00
2023-04-23T08:45:55.922Z,3117.00
2023-04-23T08:46:56.008Z,3027.00
2023-04-23T08:47:56.044Z,2966.00
2023-04-23T08:48:56.073Z,2967.00
2023-04-23T08:49:56.139Z,3011.00
2023-04-23T08:50:56.201Z,3009.00
2023-04-23T08:51:56.262Z,3018.00
2023-04-23T08:52:56.276Z,3036.00
2023-04-23T08:53:56.327Z,3079.00
2023-04-23T08:54:56.369Z,3038.00
2023-04-23T08:55:56.440Z,3016.00
2023-04-23T08:56:56.439Z,3051.00
2023-04-23T08:57:56.502Z,3057.00
2023-04-23T08:58:57.258Z,3083.00
2023-04-23T08:59:56.642Z,3090.00
2023-04-23T09:00:56.686Z,3069.00
2023-04-23T09:01:56.825Z,3000.00
2023-04-23T09:02:57.035Z,2887.00
2023-04-23T09:03:56.948Z,2738.00
2023-04-23T09:04:56.875Z,2708.00
2023-04-23T09:05:56.914Z,2607.00
2023-04-23T09:06:56.985Z,2601.00
2023-04-23T09:07:57.004Z,2624.00
2023-04-23T09:08:57.069Z,2651.00
2023-04-23T09:09:57.103Z,2694.00
2023-04-23T09:10:57.153Z,2729.00
2023-04-23T09:11:57.220Z,2757.00
2023-04-23T09:12:57.227Z,2775.00
2023-04-23T09:13:57.290Z,2809.00
2023-04-23T09:14:57.319Z,2793.00
2023-04-23T09:15:57.372Z,2789.00
2023-04-23T09:16:57.554Z,2774.00
2023-04-23T09:17:57.504Z,2739.00
2023-04-23T09:18:57.529Z,2721.00
2023-04-23T09:19:57.566Z,2691.00
2023-04-23T09:20:57.613Z,2657.00
2023-04-23T09:21:57.665Z,2602.00
2023-04-23T09:22:57.746Z,2597.00
2023-04-23T09:23:57.786Z,2576.00
2023-04-23T09:24:57.800Z,2549.00
2023-04-23T09:25:57.837Z,2525.00
2023-04-23T09:26:57.916Z,2538.00
2023-04-23T09:27:57.958Z,2531.00
2023-04-23T09:28:58.033Z,2539.00
2023-04-23T09:29:58.050Z,2599.00
2023-04-23T09:30:58.118Z,2563.00
2023-04-23T09:31:58.203Z,2523.00
2023-04-23T09:32:58.252Z,2508.00
2023-04-23T09:33:58.262Z,2489.00
2023-04-23T09:34:58.345Z,2460.00
2023-04-23T09:35:58.348Z,2479.00
2023-04-23T09:36:58.428Z,2437.00
2023-04-23T09:37:58.467Z,2499.00
2023-04-23T09:38:58.535Z,2555.00
2023-04-23T09:39:58.568Z,2588.00
2023-04-23T09:40:58.618Z,2609.00
2023-04-23T09:41:58.697Z,2592.00
2023-04-23T09:42:58.751Z,2591.00
2023-04-23T09:43:58.774Z,2515.00
2023-04-23T09:44:58.791Z,2473.00
2023-04-23T09:45:58.966Z,2477.00
2023-04-23T09:46:58.917Z,2452.00
2023-04-23T09:47:59.050Z,2391.00
2023-04-23T09:48:58.994Z,2361.00
2023-04-23T09:49:59.052Z,2353.00
2023-04-23T09:50:59.109Z,2314.00
2023-04-23T09:51:59.171Z,2325.00
2023-04-23T09:52:59.230Z,2315.00
2023-04-23T09:53:59.260Z,2268.00
2023-04-23T09:54:59.328Z,2272.00
2023-04-23T09:55:59.337Z,2259.00
2023-04-23T09:56:59.375Z,2250.00
2023-04-23T09:57:59.439Z,2252.00
2023-04-23T09:58:59.499Z,2208.00
2023-04-23T10:00:11.097Z,2199.00
2023-04-23T10:01:00.617Z,2201.00
2023-04-23T10:01:59.536Z,2210.00
2023-04-23T10:02:59.650Z,2228.00
2023-04-23T10:03:59.681Z,2259.00
2023-04-23T10:05:14.327Z,2292.00
2023-04-23T10:06:02.199Z,2202.00
2023-04-23T10:07:17.473Z,2215.00
2023-04-23T10:08:00.464Z,2205.00
2023-04-23T10:09:00.396Z,2234.00
2023-04-23T10:09:59.456Z,2282.00
2023-04-23T10:11:13.634Z,2336.00
2023-04-23T10:12:00.453Z,2208.00
2023-04-23T10:12:59.447Z,2249.00
2023-04-23T10:13:59.435Z,2341.00
2023-04-23T10:14:59.402Z,2431.00
2023-04-23T10:16:10.258Z,2583.00
2023-04-23T10:17:00.444Z,2212.00
2023-04-23T10:17:59.453Z,2256.00
2023-04-23T10:18:59.360Z,2336.00
2023-04-23T10:19:59.387Z,2426.00
2023-04-23T10:20:59.369Z,2525.00
2023-04-23T10:22:08.558Z,2552.00
2023-04-23T10:23:00.375Z,2554.00
2023-04-23T10:23:59.357Z,2560.00
2023-04-23T10:24:59.316Z,2577.00
2023-04-23T10:25:59.295Z,2573.00
2023-04-23T10:27:01.277Z,2612.00
2023-04-23T10:27:59.513Z,2669.00
2023-04-23T10:28:59.579Z,2690.00
2023-04-23T10:29:59.631Z,2674.00
2023-04-23T10:30:59.675Z,2731.00
2023-04-23T10:31:59.722Z,2791.00
2023-04-23T10:32:59.804Z,2787.00
2023-04-23T10:33:59.989Z,2761.00
2023-04-23T10:34:59.799Z,2643.00
2023-04-23T10:35:59.856Z,2625.00
2023-04-23T10:36:59.912Z,2633.00
2023-04-23T10:37:59.952Z,2582.00
2023-04-23T10:39:00.752Z,2552.00
2023-04-23T10:40:00.046Z,2571.00
2023-04-23T10:41:00.059Z,2584.00
2023-04-23T10:42:00.129Z,2483.00
2023-04-23T10:43:00.155Z,2333.00
2023-04-23T10:44:00.191Z,2407.00
2023-04-23T10:45:07.048Z,2421.00
2023-04-23T10:46:01.232Z,2425.00
2023-04-23T10:47:00.226Z,2445.00
2023-04-23T10:48:00.290Z,2480.00
2023-04-23T10:49:00.185Z,2479.00
2023-04-23T10:50:00.201Z,2378.00
2023-04-23T10:51:17.449Z,2317.00
2023-04-23T10:53:00.162Z,2318.00
2023-04-23T10:54:00.149Z,2316.00
2023-04-23T10:55:00.374Z,2283.00
2023-04-23T10:56:00.129Z,2317.00
2023-04-23T10:57:00.128Z,2300.00
2023-04-23T10:58:01.740Z,2292.00
2023-04-23T10:59:00.159Z,2260.00
2023-04-23T11:00:00.163Z,2222.00
2023-04-23T11:01:00.056Z,2247.00
2023-04-23T11:02:00.133Z,2270.00
2023-04-23T11:03:00.228Z,2275.00
2023-04-23T11:04:00.236Z,2255.00
2023-04-23T11:05:00.072Z,2241.00
2023-04-23T11:06:00.040Z,2279.00
2023-04-23T11:07:00.000Z,2303.00
2023-04-23T11:08:05.707Z,2286.00
2023-04-23T11:09:00.992Z,2275.00
2023-04-23T11:09:59.993Z,2270.00
2023-04-23T11:10:59.996Z,2297.00
2023-04-23T11:11:59.967Z,2326.00
2023-04-23T11:13:00.007Z,2312.00
2023-04-23T11:14:00.824Z,2232.00
2023-04-23T11:14:59.984Z,2177.00
2023-04-23T11:15:59.964Z,2163.00
2023-04-23T11:16:59.932Z,2223.00
2023-04-23T11:18:00.017Z,2265.00
2023-04-23T11:18:59.956Z,2215.00
2023-04-23T11:19:59.912Z,2211.00
2023-04-23T11:20:59.923Z,2191.00
2023-04-23T11:21:59.907Z,2108.00
2023-04-23T11:22:59.877Z,2087.00
2023-04-23T11:23:59.886Z,2120.00
2023-04-23T11:24:59.890Z,2088.00
2023-04-23T11:25:59.831Z,2119.00
2023-04-23T11:26:59.852Z,2100.00
2023-04-23T11:27:59.916Z,2044.00
2023-04-23T11:28:59.828Z,1994.00
2023-04-23T11:30:00.160Z,1983.00
2023-04-23T11:30:59.820Z,2003.00
2023-04-23T11:32:02.427Z,2057.00
2023-04-23T11:33:00.408Z,2168.00
2023-04-23T11:33:59.787Z,2182.00
2023-04-23T11:34:59.799Z,2177.00
2023-04-23T11:35:59.783Z,2113.00
2023-04-23T11:36:59.772Z,2051.00
2023-04-23T11:37:59.755Z,1892.00
2023-04-23T11:38:59.796Z,1852.00
2023-04-23T11:39:59.738Z,1858.00
2023-04-23T11:40:59.732Z,1961.00
2023-04-23T11:41:59.726Z,2037.00
2023-04-23T11:42:59.739Z,2023.00
2023-04-23T11:43:59.728Z,2011.00
2023-04-23T11:44:59.704Z,2036.00
2023-04-23T11:45:59.772Z,2028.00
2023-04-23T11:46:59.689Z,2054.00
2023-04-23T11:47:59.733Z,2203.00
2023-04-23T11:48:59.710Z,2277.00
2023-04-23T11:49:59.677Z,2281.00
2023-04-23T11:50:59.680Z,2244.00
2023-04-23T11:51:59.675Z,2273.00
2023-04-23T11:52:59.675Z,2265.00
2023-04-23T11:53:59.658Z,2145.00
2023-04-23T11:54:59.637Z,2143.00
2023-04-23T11:55:59.660Z,2272.00
2023-04-23T11:56:59.660Z,2291.00
2023-04-23T11:57:59.626Z,2319.00
2023-04-23T11:58:59.628Z,2339.00
2023-04-23T11:59:59.579Z,2253.00
2023-04-23T12:00:59.585Z,2286.00
2023-04-23T12:01:59.609Z,2278.00
2023-04-23T12:02:59.801Z,2299.00
2023-04-23T12:03:59.833Z,2332.00
2023-04-23T12:04:59.554Z,2303.00
2023-04-23T12:05:59.532Z,2269.00
2023-04-23T12:06:59.541Z,2148.00